sensor_id;sensor_type;location;lat;lon;timestamp;P1;durP1;ratioP1;P2;durP2;ratioP2
11835;SDS011;5977;51.972;7.640;2023-07-20T00:00:32;163.50;;;54.40;;
11835;SDS011;5977;51.972;7.640;2023-07-20T00:03:10;164.00;;;54.67;;
11835;SDS011;5977;51.972;7.640;2023-07-20T00:05:43;163.47;;;54.23;;
11835;SDS011;5977;51.972;7.640;2023-07-20T00:08:11;164.27;;;54.47;;
11835;SDS011;5977;51.972;7.640;2023-07-20T00:10:41;164.03;;;54.67;;
11835;SDS011;5977;51.972;7.640;2023-07-20T00:13:11;163.97;;;54.43;;
11835;SDS011;5977;51.972;7.640;2023-07-20T00:15:39;163.60;;;54.20;;
11835;SDS011;5977;51.972;7.640;2023-07-20T00:18:07;163.87;;;54.53;;
11835;SDS011;5977;51.972;7.640;2023-07-20T00:20:35;163.60;;;53.80;;
11835;SDS011;5977;51.972;7.640;2023-07-20T00:23:03;164.40;;;54.60;;
11835;SDS011;5977;51.972;7.640;2023-07-20T00:25:31;163.77;;;54.30;;
11835;SDS011;5977;51.972;7.640;2023-07-20T00:28:01;164.10;;;54.77;;
11835;SDS011;5977;51.972;7.640;2023-07-20T00:30:29;163.27;;;54.20;;
11835;SDS011;5977;51.972;7.640;2023-07-20T00:32:57;164.23;;;54.43;;
11835;SDS011;5977;51.972;7.640;2023-07-20T00:35:25;164.17;;;54.57;;
11835;SDS011;5977;51.972;7.640;2023-07-20T00:37:52;164.10;;;54.47;;
11835;SDS011;5977;51.972;7.640;2023-07-20T00:40:20;164.73;;;54.83;;
11835;SDS011;5977;51.972;7.640;2023-07-20T00:42:48;163.83;;;54.33;;
11835;SDS011;5977;51.972;7.640;2023-07-20T00:45:23;163.70;;;54.57;;
11835;SDS011;5977;51.972;7.640;2023-07-20T00:47:52;163.23;;;53.73;;
11835;SDS011;5977;51.972;7.640;2023-07-20T00:50:21;163.90;;;54.57;;
11835;SDS011;5977;51.972;7.640;2023-07-20T00:52:49;163.47;;;54.43;;
11835;SDS011;5977;51.972;7.640;2023-07-20T00:55:18;163.67;;;54.23;;
11835;SDS011;5977;51.972;7.640;2023-07-20T00:57:46;164.13;;;54.50;;
11835;SDS011;5977;51.972;7.640;2023-07-20T01:00:14;163.97;;;54.40;;
11835;SDS011;5977;51.972;7.640;2023-07-20T01:02:44;163.50;;;54.00;;
11835;SDS011;5977;51.972;7.640;2023-07-20T01:05:13;163.63;;;53.87;;
11835;SDS011;5977;51.972;7.640;2023-07-20T01:07:44;163.43;;;53.70;;
11835;SDS011;5977;51.972;7.640;2023-07-20T01:10:20;163.57;;;53.90;;
11835;SDS011;5977;51.972;7.640;2023-07-20T01:12:53;162.70;;;53.47;;
11835;SDS011;5977;51.972;7.640;2023-07-20T01:15:22;163.23;;;53.70;;
11835;SDS011;5977;51.972;7.640;2023-07-20T01:17:52;163.53;;;54.10;;
11835;SDS011;5977;51.972;7.640;2023-07-20T01:20:20;163.00;;;53.97;;
11835;SDS011;5977;51.972;7.640;2023-07-20T01:23:00;162.60;;;53.73;;
11835;SDS011;5977;51.972;7.640;2023-07-20T01:25:47;163.07;;;53.77;;
11835;SDS011;5977;51.972;7.640;2023-07-20T01:28:38;163.13;;;54.00;;
11835;SDS011;5977;51.972;7.640;2023-07-20T01:31:30;162.93;;;53.90;;
11835;SDS011;5977;51.972;7.640;2023-07-20T01:34:01;163.27;;;54.23;;
11835;SDS011;5977;51.972;7.640;2023-07-20T01:36:33;163.27;;;53.90;;
11835;SDS011;5977;51.972;7.640;2023-07-20T01:39:03;162.73;;;53.47;;
11835;SDS011;5977;51.972;7.640;2023-07-20T01:41:33;162.80;;;53.63;;
11835;SDS011;5977;51.972;7.640;2023-07-20T01:44:03;162.80;;;53.90;;
11835;SDS011;5977;51.972;7.640;2023-07-20T01:46:32;162.90;;;54.00;;
11835;SDS011;5977;51.972;7.640;2023-07-20T01:49:00;162.73;;;53.77;;
11835;SDS011;5977;51.972;7.640;2023-07-20T01:51:30;162.83;;;53.53;;
11835;SDS011;5977;51.972;7.640;2023-07-20T01:53:58;162.17;;;53.67;;
11835;SDS011;5977;51.972;7.640;2023-07-20T01:56:27;162.60;;;53.60;;
11835;SDS011;5977;51.972;7.640;2023-07-20T01:58:55;162.73;;;53.80;;
11835;SDS011;5977;51.972;7.640;2023-07-20T02:01:23;162.73;;;53.80;;
11835;SDS011;5977;51.972;7.640;2023-07-20T02:03:52;163.13;;;53.83;;
11835;SDS011;5977;51.972;7.640;2023-07-20T02:06:20;162.90;;;53.87;;
11835;SDS011;5977;51.972;7.640;2023-07-20T02:08:49;163.30;;;53.73;;
11835;SDS011;5977;51.972;7.640;2023-07-20T02:11:17;163.13;;;53.97;;
11835;SDS011;5977;51.972;7.640;2023-07-20T02:13:45;163.33;;;54.03;;
11835;SDS011;5977;51.972;7.640;2023-07-20T02:16:14;162.83;;;54.00;;
11835;SDS011;5977;51.972;7.640;2023-07-20T02:18:42;163.47;;;54.80;;
11835;SDS011;5977;51.972;7.640;2023-07-20T02:21:12;162.80;;;53.97;;
11835;SDS011;5977;51.972;7.640;2023-07-20T02:23:40;162.17;;;53.43;;
11835;SDS011;5977;51.972;7.640;2023-07-20T02:26:08;163.00;;;54.30;;
11835;SDS011;5977;51.972;7.640;2023-07-20T02:28:35;162.83;;;54.47;;
11835;SDS011;5977;51.972;7.640;2023-07-20T02:31:03;162.50;;;54.50;;
11835;SDS011;5977;51.972;7.640;2023-07-20T02:33:31;162.63;;;53.83;;
11835;SDS011;5977;51.972;7.640;2023-07-20T02:35:59;163.97;;;54.67;;
11835;SDS011;5977;51.972;7.640;2023-07-20T02:38:29;163.30;;;54.03;;
11835;SDS011;5977;51.972;7.640;2023-07-20T02:40:57;161.97;;;53.53;;
11835;SDS011;5977;51.972;7.640;2023-07-20T02:43:25;162.90;;;54.00;;
11835;SDS011;5977;51.972;7.640;2023-07-20T02:45:53;162.70;;;53.70;;
11835;SDS011;5977;51.972;7.640;2023-07-20T02:48:21;162.33;;;53.60;;
11835;SDS011;5977;51.972;7.640;2023-07-20T02:50:49;162.60;;;53.67;;
11835;SDS011;5977;51.972;7.640;2023-07-20T02:53:17;162.60;;;53.77;;
11835;SDS011;5977;51.972;7.640;2023-07-20T02:55:47;165.07;;;54.47;;
11835;SDS011;5977;51.972;7.640;2023-07-20T02:58:14;164.37;;;53.97;;
11835;SDS011;5977;51.972;7.640;2023-07-20T03:00:43;164.30;;;54.27;;
11835;SDS011;5977;51.972;7.640;2023-07-20T03:03:11;164.17;;;54.57;;
11835;SDS011;5977;51.972;7.640;2023-07-20T03:05:40;164.07;;;53.97;;
11835;SDS011;5977;51.972;7.640;2023-07-20T03:08:08;163.47;;;53.70;;
11835;SDS011;5977;51.972;7.640;2023-07-20T03:10:40;164.07;;;54.57;;
11835;SDS011;5977;51.972;7.640;2023-07-20T03:13:09;163.80;;;54.30;;
11835;SDS011;5977;51.972;7.640;2023-07-20T03:15:39;162.93;;;54.10;;
11835;SDS011;5977;51.972;7.640;2023-07-20T03:18:07;163.10;;;54.00;;
11835;SDS011;5977;51.972;7.640;2023-07-20T03:20:35;163.77;;;54.57;;
11835;SDS011;5977;51.972;7.640;2023-07-20T03:23:04;163.57;;;54.37;;
11835;SDS011;5977;51.972;7.640;2023-07-20T03:25:32;163.23;;;53.90;;
11835;SDS011;5977;51.972;7.640;2023-07-20T03:28:03;163.43;;;53.60;;
11835;SDS011;5977;51.972;7.640;2023-07-20T03:30:33;163.07;;;53.63;;
11835;SDS011;5977;51.972;7.640;2023-07-20T03:33:02;162.63;;;53.47;;
11835;SDS011;5977;51.972;7.640;2023-07-20T03:35:31;163.70;;;53.90;;
11835;SDS011;5977;51.972;7.640;2023-07-20T03:37:59;163.20;;;53.83;;
11835;SDS011;5977;51.972;7.640;2023-07-20T03:40:27;163.70;;;54.07;;
11835;SDS011;5977;51.972;7.640;2023-07-20T03:42:55;163.47;;;54.13;;
11835;SDS011;5977;51.972;7.640;2023-07-20T03:45:23;163.27;;;54.03;;
11835;SDS011;5977;51.972;7.640;2023-07-20T03:47:52;162.87;;;53.53;;
11835;SDS011;5977;51.972;7.640;2023-07-20T03:50:21;162.63;;;53.70;;
11835;SDS011;5977;51.972;7.640;2023-07-20T03:52:49;162.80;;;53.37;;
11835;SDS011;5977;51.972;7.640;2023-07-20T03:55:17;163.30;;;54.20;;
11835;SDS011;5977;51.972;7.640;2023-07-20T03:57:45;163.27;;;53.97;;
11835;SDS011;5977;51.972;7.640;2023-07-20T04:00:13;163.27;;;54.03;;
11835;SDS011;5977;51.972;7.640;2023-07-20T04:02:42;162.47;;;53.70;;
11835;SDS011;5977;51.972;7.640;2023-07-20T04:05:12;162.73;;;53.93;;
11835;SDS011;5977;51.972;7.640;2023-07-20T04:07:40;163.00;;;54.17;;
11835;SDS011;5977;51.972;7.640;2023-07-20T04:10:08;163.10;;;53.90;;
11835;SDS011;5977;51.972;7.640;2023-07-20T04:12:36;163.20;;;53.97;;
11835;SDS011;5977;51.972;7.640;2023-07-20T04:15:06;163.17;;;53.83;;
11835;SDS011;5977;51.972;7.640;2023-07-20T04:17:34;162.73;;;53.87;;
11835;SDS011;5977;51.972;7.640;2023-07-20T04:20:03;162.20;;;53.17;;
11835;SDS011;5977;51.972;7.640;2023-07-20T04:22:34;162.43;;;53.33;;
11835;SDS011;5977;51.972;7.640;2023-07-20T04:25:03;162.87;;;53.40;;
11835;SDS011;5977;51.972;7.640;2023-07-20T04:27:31;162.93;;;53.63;;
11835;SDS011;5977;51.972;7.640;2023-07-20T04:29:59;163.43;;;53.57;;
11835;SDS011;5977;51.972;7.640;2023-07-20T04:32:28;162.60;;;53.37;;
11835;SDS011;5977;51.972;7.640;2023-07-20T04:34:57;162.43;;;53.20;;
11835;SDS011;5977;51.972;7.640;2023-07-20T04:37:25;162.97;;;53.60;;
11835;SDS011;5977;51.972;7.640;2023-07-20T04:39:54;161.93;;;53.20;;
11835;SDS011;5977;51.972;7.640;2023-07-20T04:42:22;162.77;;;53.37;;
11835;SDS011;5977;51.972;7.640;2023-07-20T04:44:50;162.87;;;53.50;;
11835;SDS011;5977;51.972;7.640;2023-07-20T04:47:18;163.37;;;53.70;;
11835;SDS011;5977;51.972;7.640;2023-07-20T04:49:48;163.17;;;54.03;;
11835;SDS011;5977;51.972;7.640;2023-07-20T04:52:16;162.10;;;53.07;;
11835;SDS011;5977;51.972;7.640;2023-07-20T04:54:44;162.97;;;53.70;;
11835;SDS011;5977;51.972;7.640;2023-07-20T04:57:13;162.33;;;53.33;;
11835;SDS011;5977;51.972;7.640;2023-07-20T04:59:46;162.70;;;53.80;;
11835;SDS011;5977;51.972;7.640;2023-07-20T05:02:14;162.20;;;53.37;;
11835;SDS011;5977;51.972;7.640;2023-07-20T05:04:42;163.67;;;54.23;;
11835;SDS011;5977;51.972;7.640;2023-07-20T05:07:10;163.27;;;54.07;;
11835;SDS011;5977;51.972;7.640;2023-07-20T05:09:38;162.17;;;53.50;;
11835;SDS011;5977;51.972;7.640;2023-07-20T05:12:07;162.33;;;53.60;;
11835;SDS011;5977;51.972;7.640;2023-07-20T05:14:37;162.53;;;53.80;;
11835;SDS011;5977;51.972;7.640;2023-07-20T05:17:05;161.77;;;53.43;;
11835;SDS011;5977;51.972;7.640;2023-07-20T05:19:33;162.47;;;54.00;;
11835;SDS011;5977;51.972;7.640;2023-07-20T05:22:03;162.63;;;53.83;;
11835;SDS011;5977;51.972;7.640;2023-07-20T05:24:32;162.33;;;53.50;;
11835;SDS011;5977;51.972;7.640;2023-07-20T05:26:59;162.77;;;53.70;;
11835;SDS011;5977;51.972;7.640;2023-07-20T05:29:27;162.07;;;53.37;;
11835;SDS011;5977;51.972;7.640;2023-07-20T05:31:57;162.63;;;53.80;;
11835;SDS011;5977;51.972;7.640;2023-07-20T05:34:31;163.60;;;54.47;;
11835;SDS011;5977;51.972;7.640;2023-07-20T05:37:01;162.93;;;53.93;;
11835;SDS011;5977;51.972;7.640;2023-07-20T05:39:31;161.93;;;53.47;;
11835;SDS011;5977;51.972;7.640;2023-07-20T05:41:59;163.33;;;54.00;;
11835;SDS011;5977;51.972;7.640;2023-07-20T05:44:27;162.57;;;54.03;;
11835;SDS011;5977;51.972;7.640;2023-07-20T05:46:56;161.90;;;53.77;;
11835;SDS011;5977;51.972;7.640;2023-07-20T05:49:24;162.57;;;53.70;;
11835;SDS011;5977;51.972;7.640;2023-07-20T05:51:52;162.53;;;54.17;;
11835;SDS011;5977;51.972;7.640;2023-07-20T05:54:21;162.10;;;54.00;;
11835;SDS011;5977;51.972;7.640;2023-07-20T05:56:49;162.27;;;54.10;;
11835;SDS011;5977;51.972;7.640;2023-07-20T05:59:17;162.63;;;54.10;;
11835;SDS011;5977;51.972;7.640;2023-07-20T06:01:49;162.63;;;54.43;;
11835;SDS011;5977;51.972;7.640;2023-07-20T06:04:25;163.07;;;54.57;;
11835;SDS011;5977;51.972;7.640;2023-07-20T06:06:58;162.10;;;54.30;;
11835;SDS011;5977;51.972;7.640;2023-07-20T06:09:26;161.87;;;54.00;;
11835;SDS011;5977;51.972;7.640;2023-07-20T06:11:55;161.70;;;54.13;;
11835;SDS011;5977;51.972;7.640;2023-07-20T06:14:23;161.90;;;54.47;;
11835;SDS011;5977;51.972;7.640;2023-07-20T06:16:53;161.60;;;53.97;;
11835;SDS011;5977;51.972;7.640;2023-07-20T06:19:26;162.00;;;54.07;;
11835;SDS011;5977;51.972;7.640;2023-07-20T06:21:57;162.50;;;54.83;;
11835;SDS011;5977;51.972;7.640;2023-07-20T06:24:29;162.00;;;54.30;;
11835;SDS011;5977;51.972;7.640;2023-07-20T06:26:57;162.10;;;54.40;;
11835;SDS011;5977;51.972;7.640;2023-07-20T06:29:28;161.73;;;54.27;;
11835;SDS011;5977;51.972;7.640;2023-07-20T06:31:58;162.17;;;54.37;;
11835;SDS011;5977;51.972;7.640;2023-07-20T06:34:27;162.83;;;54.63;;
11835;SDS011;5977;51.972;7.640;2023-07-20T06:36:55;162.33;;;54.27;;
11835;SDS011;5977;51.972;7.640;2023-07-20T06:39:24;162.00;;;54.17;;
11835;SDS011;5977;51.972;7.640;2023-07-20T06:41:55;162.40;;;54.33;;
11835;SDS011;5977;51.972;7.640;2023-07-20T06:44:23;162.13;;;53.83;;
11835;SDS011;5977;51.972;7.640;2023-07-20T06:46:50;162.63;;;54.50;;
11835;SDS011;5977;51.972;7.640;2023-07-20T06:49:25;162.37;;;54.33;;
11835;SDS011;5977;51.972;7.640;2023-07-20T06:51:55;161.43;;;53.93;;
11835;SDS011;5977;51.972;7.640;2023-07-20T06:54:23;162.20;;;54.40;;
11835;SDS011;5977;51.972;7.640;2023-07-20T06:56:51;162.00;;;54.70;;
11835;SDS011;5977;51.972;7.640;2023-07-20T06:59:21;161.97;;;54.40;;
11835;SDS011;5977;51.972;7.640;2023-07-20T07:01:50;161.90;;;54.57;;
11835;SDS011;5977;51.972;7.640;2023-07-20T07:04:18;162.40;;;54.70;;
11835;SDS011;5977;51.972;7.640;2023-07-20T07:06:46;161.87;;;54.60;;
11835;SDS011;5977;51.972;7.640;2023-07-20T07:09:16;161.13;;;54.23;;
11835;SDS011;5977;51.972;7.640;2023-07-20T07:11:44;161.63;;;54.63;;
11835;SDS011;5977;51.972;7.640;2023-07-20T07:14:12;161.57;;;54.57;;
11835;SDS011;5977;51.972;7.640;2023-07-20T07:16:40;162.27;;;55.37;;
11835;SDS011;5977;51.972;7.640;2023-07-20T07:19:08;162.53;;;55.50;;
11835;SDS011;5977;51.972;7.640;2023-07-20T07:21:36;161.73;;;55.17;;
11835;SDS011;5977;51.972;7.640;2023-07-20T07:24:04;161.40;;;54.40;;
11835;SDS011;5977;51.972;7.640;2023-07-20T07:26:35;162.10;;;55.20;;
11835;SDS011;5977;51.972;7.640;2023-07-20T07:29:03;161.83;;;54.87;;
11835;SDS011;5977;51.972;7.640;2023-07-20T07:31:33;162.47;;;55.13;;
11835;SDS011;5977;51.972;7.640;2023-07-20T07:34:02;161.57;;;55.23;;
11835;SDS011;5977;51.972;7.640;2023-07-20T07:36:30;161.57;;;55.00;;
11835;SDS011;5977;51.972;7.640;2023-07-20T07:38:59;161.03;;;54.13;;
11835;SDS011;5977;51.972;7.640;2023-07-20T07:41:30;161.93;;;54.60;;
11835;SDS011;5977;51.972;7.640;2023-07-20T07:43:59;161.40;;;54.20;;
11835;SDS011;5977;51.972;7.640;2023-07-20T07:46:27;161.40;;;54.73;;
11835;SDS011;5977;51.972;7.640;2023-07-20T07:48:55;162.27;;;54.97;;
11835;SDS011;5977;51.972;7.640;2023-07-20T07:51:23;162.13;;;54.40;;
11835;SDS011;5977;51.972;7.640;2023-07-20T07:53:51;161.53;;;54.07;;
11835;SDS011;5977;51.972;7.640;2023-07-20T07:56:19;162.27;;;54.60;;
11835;SDS011;5977;51.972;7.640;2023-07-20T07:58:50;162.13;;;54.37;;
11835;SDS011;5977;51.972;7.640;2023-07-20T08:01:20;162.70;;;54.97;;
11835;SDS011;5977;51.972;7.640;2023-07-20T08:03:48;161.77;;;54.60;;
11835;SDS011;5977;51.972;7.640;2023-07-20T08:06:17;161.33;;;54.00;;
11835;SDS011;5977;51.972;7.640;2023-07-20T08:08:45;162.47;;;54.67;;
11835;SDS011;5977;51.972;7.640;2023-07-20T08:11:13;161.07;;;54.37;;
11835;SDS011;5977;51.972;7.640;2023-07-20T08:13:41;161.17;;;54.77;;
11835;SDS011;5977;51.972;7.640;2023-07-20T08:16:09;161.27;;;55.27;;
11835;SDS011;5977;51.972;7.640;2023-07-20T08:18:38;161.53;;;56.10;;
11835;SDS011;5977;51.972;7.640;2023-07-20T08:21:06;161.30;;;56.80;;
11835;SDS011;5977;51.972;7.640;2023-07-20T08:23:34;160.77;;;57.10;;
11835;SDS011;5977;51.972;7.640;2023-07-20T08:26:04;161.43;;;57.17;;
11835;SDS011;5977;51.972;7.640;2023-07-20T08:28:33;161.33;;;57.50;;
11835;SDS011;5977;51.972;7.640;2023-07-20T08:31:02;161.90;;;58.10;;
11835;SDS011;5977;51.972;7.640;2023-07-20T08:33:33;161.10;;;58.23;;
11835;SDS011;5977;51.972;7.640;2023-07-20T08:36:02;161.93;;;58.60;;
11835;SDS011;5977;51.972;7.640;2023-07-20T08:38:32;162.27;;;58.63;;
11835;SDS011;5977;51.972;7.640;2023-07-20T08:41:00;161.90;;;58.33;;
11835;SDS011;5977;51.972;7.640;2023-07-20T08:43:28;160.97;;;57.00;;
11835;SDS011;5977;51.972;7.640;2023-07-20T08:45:58;161.90;;;57.17;;
11835;SDS011;5977;51.972;7.640;2023-07-20T08:48:27;161.43;;;56.83;;
11835;SDS011;5977;51.972;7.640;2023-07-20T08:50:56;160.47;;;55.97;;
11835;SDS011;5977;51.972;7.640;2023-07-20T08:53:28;161.67;;;57.07;;
11835;SDS011;5977;51.972;7.640;2023-07-20T08:55:58;161.43;;;57.10;;
11835;SDS011;5977;51.972;7.640;2023-07-20T08:58:28;161.43;;;57.73;;
11835;SDS011;5977;51.972;7.640;2023-07-20T09:00:57;161.37;;;58.00;;
11835;SDS011;5977;51.972;7.640;2023-07-20T09:03:28;161.07;;;57.53;;
11835;SDS011;5977;51.972;7.640;2023-07-20T09:05:56;161.40;;;57.80;;
11835;SDS011;5977;51.972;7.640;2023-07-20T09:08:24;162.37;;;58.13;;
11835;SDS011;5977;51.972;7.640;2023-07-20T09:10:53;161.77;;;58.03;;
11835;SDS011;5977;51.972;7.640;2023-07-20T09:13:21;162.00;;;57.90;;
11835;SDS011;5977;51.972;7.640;2023-07-20T09:15:52;161.57;;;58.00;;
11835;SDS011;5977;51.972;7.640;2023-07-20T09:18:24;162.07;;;58.37;;
11835;SDS011;5977;51.972;7.640;2023-07-20T09:20:52;161.63;;;58.20;;
11835;SDS011;5977;51.972;7.640;2023-07-20T09:23:22;162.20;;;58.07;;
11835;SDS011;5977;51.972;7.640;2023-07-20T09:25:59;161.50;;;57.93;;
11835;SDS011;5977;51.972;7.640;2023-07-20T09:28:28;162.03;;;58.00;;
11835;SDS011;5977;51.972;7.640;2023-07-20T09:30:56;160.80;;;57.50;;
11835;SDS011;5977;51.972;7.640;2023-07-20T09:33:24;161.80;;;58.00;;
11835;SDS011;5977;51.972;7.640;2023-07-20T09:35:54;160.83;;;57.30;;
11835;SDS011;5977;51.972;7.640;2023-07-20T09:38:48;161.10;;;57.60;;
11835;SDS011;5977;51.972;7.640;2023-07-20T09:41:21;161.10;;;57.73;;
11835;SDS011;5977;51.972;7.640;2023-07-20T09:43:52;161.33;;;57.60;;
11835;SDS011;5977;51.972;7.640;2023-07-20T09:46:21;161.73;;;58.10;;
11835;SDS011;5977;51.972;7.640;2023-07-20T09:48:52;162.23;;;58.00;;
11835;SDS011;5977;51.972;7.640;2023-07-20T09:51:23;160.67;;;57.17;;
11835;SDS011;5977;51.972;7.640;2023-07-20T09:53:52;161.70;;;57.37;;
11835;SDS011;5977;51.972;7.640;2023-07-20T09:56:22;161.30;;;57.00;;
11835;SDS011;5977;51.972;7.640;2023-07-20T09:58:52;161.53;;;57.03;;
11835;SDS011;5977;51.972;7.640;2023-07-20T10:01:20;161.30;;;56.57;;
11835;SDS011;5977;51.972;7.640;2023-07-20T10:03:52;161.30;;;56.73;;
11835;SDS011;5977;51.972;7.640;2023-07-20T10:06:23;161.87;;;57.23;;
11835;SDS011;5977;51.972;7.640;2023-07-20T10:08:52;161.23;;;56.77;;
11835;SDS011;5977;51.972;7.640;2023-07-20T10:11:21;161.20;;;57.00;;
11835;SDS011;5977;51.972;7.640;2023-07-20T10:13:53;161.90;;;57.70;;
11835;SDS011;5977;51.972;7.640;2023-07-20T10:16:26;161.53;;;57.60;;
11835;SDS011;5977;51.972;7.640;2023-07-20T10:18:59;161.77;;;57.47;;
11835;SDS011;5977;51.972;7.640;2023-07-20T10:21:48;161.73;;;57.40;;
11835;SDS011;5977;51.972;7.640;2023-07-20T10:24:24;161.63;;;57.17;;
11835;SDS011;5977;51.972;7.640;2023-07-20T10:26:55;161.67;;;57.07;;
11835;SDS011;5977;51.972;7.640;2023-07-20T10:29:23;160.80;;;56.20;;
11835;SDS011;5977;51.972;7.640;2023-07-20T10:31:55;161.67;;;57.07;;
11835;SDS011;5977;51.972;7.640;2023-07-20T10:34:24;160.57;;;56.50;;
11835;SDS011;5977;51.972;7.640;2023-07-20T10:36:52;161.37;;;56.73;;
11835;SDS011;5977;51.972;7.640;2023-07-20T10:39:24;161.53;;;57.00;;
11835;SDS011;5977;51.972;7.640;2023-07-20T10:42:06;161.17;;;56.80;;
11835;SDS011;5977;51.972;7.640;2023-07-20T10:44:42;160.80;;;56.50;;
11835;SDS011;5977;51.972;7.640;2023-07-20T10:47:13;161.10;;;56.30;;
11835;SDS011;5977;51.972;7.640;2023-07-20T10:52:31;161.63;;;56.47;;
11835;SDS011;5977;51.972;7.640;2023-07-20T10:55:10;161.40;;;56.67;;
11835;SDS011;5977;51.972;7.640;2023-07-20T10:57:40;161.37;;;56.77;;
11835;SDS011;5977;51.972;7.640;2023-07-20T11:00:09;160.93;;;55.80;;
11835;SDS011;5977;51.972;7.640;2023-07-20T11:02:41;161.07;;;55.87;;
11835;SDS011;5977;51.972;7.640;2023-07-20T11:08:00;161.37;;;56.00;;
11835;SDS011;5977;51.972;7.640;2023-07-20T11:10:31;161.10;;;55.77;;
11835;SDS011;5977;51.972;7.640;2023-07-20T11:13:20;161.90;;;56.67;;
11835;SDS011;5977;51.972;7.640;2023-07-20T11:16:03;161.67;;;56.40;;
11835;SDS011;5977;51.972;7.640;2023-07-20T11:18:33;161.57;;;56.13;;
11835;SDS011;5977;51.972;7.640;2023-07-20T11:21:07;161.07;;;55.97;;
11835;SDS011;5977;51.972;7.640;2023-07-20T11:23:37;162.13;;;56.70;;
11835;SDS011;5977;51.972;7.640;2023-07-20T11:26:06;162.07;;;56.27;;
11835;SDS011;5977;51.972;7.640;2023-07-20T11:28:35;161.13;;;56.00;;
11835;SDS011;5977;51.972;7.640;2023-07-20T11:31:03;161.37;;;55.90;;
11835;SDS011;5977;51.972;7.640;2023-07-20T11:33:31;161.30;;;56.03;;
11835;SDS011;5977;51.972;7.640;2023-07-20T11:35:59;162.07;;;56.07;;
11835;SDS011;5977;51.972;7.640;2023-07-20T11:38:28;161.33;;;56.17;;
11835;SDS011;5977;51.972;7.640;2023-07-20T11:40:56;161.70;;;56.13;;
11835;SDS011;5977;51.972;7.640;2023-07-20T11:43:24;161.13;;;55.67;;
11835;SDS011;5977;51.972;7.640;2023-07-20T11:45:54;161.77;;;56.10;;
11835;SDS011;5977;51.972;7.640;2023-07-20T11:48:22;161.03;;;55.60;;
11835;SDS011;5977;51.972;7.640;2023-07-20T11:50:50;160.83;;;55.57;;
11835;SDS011;5977;51.972;7.640;2023-07-20T11:53:18;161.47;;;55.90;;
11835;SDS011;5977;51.972;7.640;2023-07-20T11:55:47;162.20;;;56.47;;
11835;SDS011;5977;51.972;7.640;2023-07-20T11:58:15;161.40;;;56.03;;
11835;SDS011;5977;51.972;7.640;2023-07-20T12:00:44;161.50;;;56.17;;
11835;SDS011;5977;51.972;7.640;2023-07-20T12:03:13;161.17;;;56.07;;
11835;SDS011;5977;51.972;7.640;2023-07-20T12:05:41;160.43;;;55.67;;
11835;SDS011;5977;51.972;7.640;2023-07-20T12:08:27;161.47;;;55.77;;
11835;SDS011;5977;51.972;7.640;2023-07-20T12:10:55;161.33;;;56.03;;
11835;SDS011;5977;51.972;7.640;2023-07-20T12:13:23;160.97;;;55.73;;
11835;SDS011;5977;51.972;7.640;2023-07-20T12:15:52;161.50;;;56.43;;
11835;SDS011;5977;51.972;7.640;2023-07-20T12:18:23;161.20;;;56.07;;
11835;SDS011;5977;51.972;7.640;2023-07-20T12:21:02;160.90;;;55.90;;
11835;SDS011;5977;51.972;7.640;2023-07-20T12:23:34;161.23;;;56.07;;
11835;SDS011;5977;51.972;7.640;2023-07-20T12:26:06;161.00;;;55.77;;
11835;SDS011;5977;51.972;7.640;2023-07-20T12:28:35;161.40;;;56.27;;
11835;SDS011;5977;51.972;7.640;2023-07-20T12:31:07;161.17;;;55.37;;
11835;SDS011;5977;51.972;7.640;2023-07-20T12:33:37;160.87;;;55.97;;
11835;SDS011;5977;51.972;7.640;2023-07-20T12:36:05;161.20;;;55.80;;
11835;SDS011;5977;51.972;7.640;2023-07-20T12:38:33;161.07;;;56.10;;
11835;SDS011;5977;51.972;7.640;2023-07-20T12:41:01;160.97;;;55.83;;
11835;SDS011;5977;51.972;7.640;2023-07-20T12:43:30;160.97;;;56.10;;
11835;SDS011;5977;51.972;7.640;2023-07-20T12:45:58;161.30;;;56.00;;
11835;SDS011;5977;51.972;7.640;2023-07-20T12:48:26;160.97;;;55.97;;
11835;SDS011;5977;51.972;7.640;2023-07-20T12:50:56;161.37;;;56.40;;
11835;SDS011;5977;51.972;7.640;2023-07-20T12:53:23;160.77;;;55.90;;
11835;SDS011;5977;51.972;7.640;2023-07-20T12:55:51;160.93;;;56.27;;
11835;SDS011;5977;51.972;7.640;2023-07-20T12:58:19;160.97;;;56.07;;
11835;SDS011;5977;51.972;7.640;2023-07-20T13:00:47;161.17;;;56.43;;
11835;SDS011;5977;51.972;7.640;2023-07-20T13:03:15;161.43;;;56.30;;
11835;SDS011;5977;51.972;7.640;2023-07-20T13:05:48;161.37;;;56.53;;
11835;SDS011;5977;51.972;7.640;2023-07-20T13:08:20;161.33;;;56.23;;
11835;SDS011;5977;51.972;7.640;2023-07-20T13:10:54;161.27;;;55.97;;
11835;SDS011;5977;51.972;7.640;2023-07-20T13:13:22;161.50;;;56.30;;
11835;SDS011;5977;51.972;7.640;2023-07-20T13:15:50;161.23;;;55.80;;
11835;SDS011;5977;51.972;7.640;2023-07-20T13:18:20;161.73;;;56.73;;
11835;SDS011;5977;51.972;7.640;2023-07-20T13:20:48;160.37;;;55.80;;
11835;SDS011;5977;51.972;7.640;2023-07-20T13:23:16;161.67;;;56.53;;
11835;SDS011;5977;51.972;7.640;2023-07-20T13:25:46;161.17;;;56.27;;
11835;SDS011;5977;51.972;7.640;2023-07-20T13:28:14;161.40;;;56.50;;
11835;SDS011;5977;51.972;7.640;2023-07-20T13:30:41;161.27;;;56.20;;
11835;SDS011;5977;51.972;7.640;2023-07-20T13:33:11;161.57;;;56.47;;
11835;SDS011;5977;51.972;7.640;2023-07-20T13:35:44;160.57;;;55.80;;
11835;SDS011;5977;51.972;7.640;2023-07-20T13:38:15;160.53;;;55.53;;
11835;SDS011;5977;51.972;7.640;2023-07-20T13:40:43;160.67;;;55.73;;
11835;SDS011;5977;51.972;7.640;2023-07-20T13:43:12;160.93;;;55.83;;
11835;SDS011;5977;51.972;7.640;2023-07-20T13:45:40;160.33;;;55.40;;
11835;SDS011;5977;51.972;7.640;2023-07-20T13:48:09;161.17;;;56.30;;
11835;SDS011;5977;51.972;7.640;2023-07-20T13:50:37;161.07;;;56.20;;
11835;SDS011;5977;51.972;7.640;2023-07-20T13:53:24;161.70;;;56.10;;
11835;SDS011;5977;51.972;7.640;2023-07-20T13:55:58;161.00;;;55.80;;
11835;SDS011;5977;51.972;7.640;2023-07-20T13:58:29;161.23;;;55.87;;
11835;SDS011;5977;51.972;7.640;2023-07-20T14:00:57;160.27;;;55.17;;
11835;SDS011;5977;51.972;7.640;2023-07-20T14:03:25;160.50;;;54.97;;
11835;SDS011;5977;51.972;7.640;2023-07-20T14:05:54;160.77;;;55.37;;
11835;SDS011;5977;51.972;7.640;2023-07-20T14:08:25;160.80;;;55.17;;
11835;SDS011;5977;51.972;7.640;2023-07-20T14:10:57;161.20;;;55.33;;
11835;SDS011;5977;51.972;7.640;2023-07-20T14:13:28;161.43;;;55.37;;
11835;SDS011;5977;51.972;7.640;2023-07-20T14:16:12;161.47;;;55.80;;
11835;SDS011;5977;51.972;7.640;2023-07-20T14:18:40;161.33;;;55.70;;
11835;SDS011;5977;51.972;7.640;2023-07-20T14:21:08;161.50;;;56.27;;
11835;SDS011;5977;51.972;7.640;2023-07-20T14:23:36;161.80;;;56.27;;
11835;SDS011;5977;51.972;7.640;2023-07-20T14:26:06;161.60;;;56.27;;
11835;SDS011;5977;51.972;7.640;2023-07-20T14:28:36;160.97;;;55.37;;
11835;SDS011;5977;51.972;7.640;2023-07-20T14:31:04;161.67;;;56.43;;
11835;SDS011;5977;51.972;7.640;2023-07-20T14:33:32;160.77;;;55.67;;
11835;SDS011;5977;51.972;7.640;2023-07-20T14:36:01;162.43;;;56.77;;
11835;SDS011;5977;51.972;7.640;2023-07-20T14:38:30;161.20;;;56.00;;
11835;SDS011;5977;51.972;7.640;2023-07-20T14:40:58;160.50;;;55.20;;